createdAt,value
2022-11-04T00:00:55.964Z,4.82
2022-11-04T00:02:19.460Z,4.10
2022-11-04T00:03:41.842Z,5.40
2022-11-04T00:05:05.557Z,4.88
2022-11-04T00:06:28.917Z,4.55
2022-11-04T00:08:09.943Z,4.78
2022-11-04T00:09:33.270Z,4.57
2022-11-04T00:11:14.184Z,5.35
2022-11-04T00:12:37.891Z,3.88
2022-11-04T00:14:01.278Z,5.03
2022-11-04T00:15:41.935Z,5.30
2022-11-04T00:17:20.230Z,5.10
2022-11-04T00:18:43.720Z,5.28
2022-11-04T00:20:25.027Z,4.97
2022-11-04T00:22:06.079Z,4.20
2022-11-04T00:23:46.779Z,4.70
2022-11-04T00:25:29.029Z,5.50
2022-11-04T00:27:09.805Z,5.18
2022-11-04T00:28:47.052Z,5.60
2022-11-04T00:30:11.930Z,5.18
2022-11-04T00:31:52.627Z,4.88
2022-11-04T00:33:27.124Z,5.70
2022-11-04T00:34:50.471Z,5.00
2022-11-04T00:36:12.908Z,5.03
2022-11-04T00:37:38.478Z,4.70
2022-11-04T00:39:01.821Z,5.90
2022-11-04T00:40:24.226Z,5.40
2022-11-04T00:41:47.569Z,4.97
2022-11-04T00:43:09.960Z,5.10
2022-11-04T00:44:34.669Z,5.35
2022-11-04T00:45:58.184Z,5.30
2022-11-04T00:47:20.523Z,5.82
2022-11-04T00:48:43.844Z,5.25
2022-11-04T00:50:07.356Z,5.65
2022-11-04T00:51:32.113Z,5.32
2022-11-04T00:52:59.564Z,5.10
2022-11-04T00:54:22.935Z,5.55
2022-11-04T00:55:46.296Z,5.95
2022-11-04T00:57:10.200Z,6.05
2022-11-04T00:58:33.640Z,5.28
2022-11-04T00:59:58.357Z,5.82
2022-11-04T01:01:22.429Z,5.57
2022-11-04T01:02:45.075Z,5.50
2022-11-04T01:04:08.625Z,4.90
2022-11-04T01:05:31.985Z,6.05
2022-11-04T01:06:54.352Z,5.93
2022-11-04T01:08:17.873Z,6.05
2022-11-04T01:09:41.222Z,5.50
2022-11-04T01:11:05.501Z,5.70
2022-11-04T01:12:28.851Z,5.40
2022-11-04T01:13:51.650Z,5.70
2022-11-04T01:15:16.390Z,5.68
2022-11-04T01:16:39.186Z,5.47
2022-11-04T01:18:02.541Z,5.20
2022-11-04T01:19:25.911Z,6.22
2022-11-04T01:20:49.259Z,5.85
2022-11-04T01:22:11.641Z,5.32
2022-11-04T01:23:36.170Z,5.75
2022-11-04T01:24:59.831Z,5.95
2022-11-04T01:26:23.637Z,6.72
2022-11-04T01:27:47.048Z,5.18
2022-11-04T01:29:09.394Z,5.93
2022-11-04T01:30:34.156Z,6.53
2022-11-04T01:31:57.512Z,5.97
2022-11-04T01:33:19.852Z,6.53
2022-11-04T01:34:43.794Z,5.72
2022-11-04T01:36:07.817Z,6.20
2022-11-04T01:37:31.618Z,6.35
2022-11-04T01:38:55.814Z,6.00
2022-11-04T01:40:19.763Z,6.63
2022-11-04T01:41:43.349Z,5.97
2022-11-04T01:43:11.429Z,5.65
2022-11-04T01:44:53.874Z,5.43
2022-11-04T01:46:23.067Z,5.65
2022-11-04T01:47:50.509Z,6.05
2022-11-04T01:49:24.212Z,5.63
2022-11-04T01:50:47.631Z,5.88
2022-11-04T01:52:13.553Z,5.30
2022-11-04T01:53:41.483Z,5.88
2022-11-04T01:55:09.931Z,4.97
2022-11-04T01:56:32.923Z,6.03
2022-11-04T01:57:59.401Z,6.18
2022-11-04T01:59:26.782Z,4.88
2022-11-04T02:00:50.386Z,6.47
2022-11-04T02:02:14.324Z,5.50
2022-11-04T02:03:42.142Z,5.20
2022-11-04T02:05:04.918Z,5.68
2022-11-04T02:06:28.261Z,6.05
2022-11-04T02:07:54.241Z,5.70
2022-11-04T02:09:17.566Z,5.75
2022-11-04T02:10:43.055Z,4.90
2022-11-04T02:12:23.513Z,5.55
2022-11-04T02:13:45.899Z,5.03
2022-11-04T02:15:09.994Z,5.70
2022-11-04T02:16:38.983Z,5.78
2022-11-04T02:18:35.726Z,5.65
2022-11-04T02:20:38.374Z,6.15
2022-11-04T02:22:43.538Z,5.60
2022-11-04T02:24:22.351Z,5.80
2022-11-04T02:26:25.492Z,6.03
2022-11-04T02:28:13.030Z,4.90
2022-11-04T02:29:45.969Z,4.95
2022-11-04T02:31:15.296Z,6.00
2022-11-04T02:33:01.568Z,5.88
2022-11-04T02:34:31.102Z,5.80
2022-11-04T02:36:01.758Z,5.70
2022-11-04T02:37:31.795Z,6.38
2022-11-04T02:38:58.183Z,5.85
2022-11-04T02:40:27.524Z,5.78
2022-11-04T02:41:56.799Z,5.03
2022-11-04T02:43:25.112Z,5.50
2022-11-04T02:44:56.699Z,5.85
2022-11-04T02:46:23.212Z,5.55
2022-11-04T02:47:50.155Z,5.80
2022-11-04T02:49:15.931Z,6.35
2022-11-04T02:50:44.123Z,6.35
2022-11-04T02:52:08.530Z,6.03
2022-11-04T02:53:34.779Z,5.60
2022-11-04T02:55:00.856Z,5.97
2022-11-04T02:56:24.915Z,6.00
2022-11-04T02:57:49.420Z,6.70
2022-11-04T02:59:15.456Z,5.97
2022-11-04T03:00:40.725Z,5.97
2022-11-04T03:02:06.767Z,6.00
2022-11-04T03:03:33.071Z,5.97
2022-11-04T03:04:56.456Z,6.47
2022-11-04T03:06:22.225Z,5.90
2022-11-04T03:07:46.977Z,5.50
2022-11-04T03:09:12.228Z,5.07
2022-11-04T03:10:35.918Z,6.18
2022-11-04T03:12:02.265Z,6.50
2022-11-04T03:13:30.322Z,5.78
2022-11-04T03:14:54.828Z,5.78
2022-11-04T03:16:22.058Z,6.30
2022-11-04T03:17:54.956Z,6.55
2022-11-04T03:19:24.361Z,6.30
2022-11-04T03:20:47.230Z,6.00
2022-11-04T03:22:12.734Z,6.13
2022-11-04T03:23:35.625Z,5.28
2022-11-04T03:24:59.170Z,6.43
2022-11-04T03:26:26.927Z,6.13
2022-11-04T03:27:57.069Z,6.22
2022-11-04T03:29:24.937Z,5.68
2022-11-04T03:30:49.256Z,5.55
2022-11-04T03:32:19.627Z,4.57
2022-11-04T03:33:46.473Z,6.00
2022-11-04T03:35:10.274Z,5.32
2022-11-04T03:36:33.655Z,5.90
2022-11-04T03:37:56.160Z,6.13
2022-11-04T03:39:19.514Z,5.97
2022-11-04T03:40:42.839Z,5.65
2022-11-04T03:42:20.015Z,6.00
2022-11-04T03:43:43.914Z,6.07
2022-11-04T03:45:08.110Z,5.97
2022-11-04T03:46:32.002Z,5.95
2022-11-04T03:47:56.911Z,6.10
2022-11-04T03:49:20.870Z,6.40
2022-11-04T03:50:44.647Z,5.80
2022-11-04T03:52:08.052Z,5.25
2022-11-04T03:53:31.175Z,5.97
2022-11-04T03:54:55.021Z,6.18
2022-11-04T03:56:51.228Z,6.32
2022-11-04T03:58:21.683Z,5.13
2022-11-04T04:00:03.609Z,6.03
2022-11-04T04:01:31.702Z,5.47
2022-11-04T04:03:03.190Z,5.53
2022-11-04T04:04:29.534Z,6.35
2022-11-04T04:05:55.531Z,5.30
2022-11-04T04:07:20.540Z,5.72
2022-11-04T04:08:47.459Z,6.13
2022-11-04T04:10:27.950Z,6.10
2022-11-04T04:11:57.051Z,5.90
2022-11-04T04:13:25.661Z,5.88
2022-11-04T04:14:52.979Z,6.07
2022-11-04T04:16:20.081Z,5.75
2022-11-04T04:17:48.234Z,7.15
2022-11-04T04:19:15.235Z,6.47
2022-11-04T04:20:39.115Z,5.72
2022-11-04T04:22:06.345Z,6.55
2022-11-04T04:23:48.817Z,6.32
2022-11-04T04:25:30.638Z,7.15
2022-11-04T04:27:20.927Z,5.90
2022-11-04T04:28:44.792Z,5.95
2022-11-04T04:30:10.806Z,5.65
2022-11-04T04:31:50.630Z,5.75
2022-11-04T04:33:16.067Z,6.88
2022-11-04T04:34:39.958Z,6.65
2022-11-04T04:36:04.223Z,6.13
2022-11-04T04:37:28.270Z,6.70
2022-11-04T04:39:09.394Z,5.97
2022-11-04T04:40:50.729Z,6.43
2022-11-04T04:42:34.165Z,6.45
2022-11-04T04:44:16.209Z,5.53
2022-11-04T04:45:41.289Z,6.28
2022-11-04T04:47:03.840Z,6.85
2022-11-04T04:48:51.339Z,5.63
2022-11-04T04:50:22.457Z,5.43
2022-11-04T04:51:47.420Z,6.57
2022-11-04T04:53:11.309Z,6.18
2022-11-04T04:54:34.056Z,6.40
2022-11-04T04:55:57.404Z,6.20
2022-11-04T04:57:19.782Z,6.40
2022-11-04T04:58:43.112Z,7.25
2022-11-04T05:00:11.958Z,7.20
2022-11-04T05:01:35.441Z,7.03
2022-11-04T05:02:58.096Z,6.38
2022-11-04T05:04:21.472Z,6.95
2022-11-04T05:05:46.545Z,6.85
2022-11-04T05:07:09.967Z,6.82
2022-11-04T05:08:35.123Z,7.05
2022-11-04T05:09:57.467Z,6.30
2022-11-04T05:11:24.445Z,6.95
2022-11-04T05:13:07.330Z,6.55
2022-11-04T05:14:30.822Z,6.75
2022-11-04T05:15:54.340Z,6.43
2022-11-04T05:17:17.735Z,6.88
2022-11-04T05:18:41.072Z,6.68
2022-11-04T05:20:03.594Z,6.40
2022-11-04T05:21:28.282Z,6.45
2022-11-04T05:22:51.630Z,6.32
2022-11-04T05:24:15.033Z,6.75
2022-11-04T05:25:39.628Z,6.60
2022-11-04T05:27:02.962Z,7.30
2022-11-04T05:28:25.477Z,6.60
2022-11-04T05:29:48.839Z,6.53
2022-11-04T05:31:13.752Z,6.90
2022-11-04T05:32:37.099Z,7.55
2022-11-04T05:34:01.173Z,6.78
2022-11-04T05:35:24.521Z,6.50
2022-11-04T05:36:49.223Z,6.22
2022-11-04T05:38:12.602Z,5.95
2022-11-04T05:39:35.976Z,6.50
2022-11-04T05:40:58.464Z,6.75
2022-11-04T05:42:21.980Z,6.30
2022-11-04T05:43:44.322Z,7.15
2022-11-04T05:45:08.754Z,7.75
2022-11-04T05:46:31.716Z,7.80
2022-11-04T05:48:01.799Z,7.28
2022-11-04T05:49:25.155Z,6.28
2022-11-04T05:50:48.759Z,6.90
2022-11-04T05:52:13.509Z,7.13
2022-11-04T05:53:35.848Z,6.57
2022-11-04T05:54:59.184Z,6.65
2022-11-04T05:56:22.653Z,6.45
2022-11-04T05:57:46.015Z,7.97
2022-11-04T05:59:09.374Z,7.32
2022-11-04T06:00:31.812Z,7.25
2022-11-04T06:01:56.635Z,7.90
2022-11-04T06:03:20.241Z,6.00
2022-11-04T06:04:44.249Z,7.45
2022-11-04T06:06:06.741Z,7.82
2022-11-04T06:07:31.490Z,7.53
2022-11-04T06:08:54.279Z,7.32
2022-11-04T06:10:17.828Z,7.45
2022-11-04T06:11:41.352Z,7.75
2022-11-04T06:13:04.819Z,7.25
2022-11-04T06:14:28.162Z,7.40
2022-11-04T06:15:51.489Z,7.35
2022-11-04T06:17:17.079Z,6.63
2022-11-04T06:18:39.493Z,8.20
2022-11-04T06:20:02.852Z,7.25
2022-11-04T06:21:27.489Z,7.25
2022-11-04T06:22:52.468Z,7.55
2022-11-04T06:24:15.802Z,7.63
2022-11-04T06:25:38.156Z,7.57
2022-11-04T06:27:01.481Z,7.05
2022-11-04T06:28:24.827Z,7.65
2022-11-04T06:29:48.172Z,7.90
2022-11-04T06:31:12.843Z,7.22
2022-11-04T06:32:36.259Z,7.93
2022-11-04T06:33:59.596Z,7.65
2022-11-04T06:35:21.962Z,7.90
2022-11-04T06:36:45.301Z,7.78
2022-11-04T06:38:10.403Z,7.97
2022-11-04T06:39:34.285Z,7.88
2022-11-04T06:40:56.769Z,7.35
2022-11-04T06:42:20.118Z,8.13
2022-11-04T06:43:43.559Z,7.57
2022-11-04T06:45:07.584Z,7.20
2022-11-04T06:46:35.736Z,7.57
2022-11-04T06:47:59.127Z,7.50
2022-11-04T06:49:23.605Z,6.68
2022-11-04T06:50:45.947Z,8.65
2022-11-04T06:52:09.467Z,7.85
2022-11-04T06:53:33.187Z,7.88
2022-11-04T06:54:56.546Z,7.82
2022-11-04T06:56:19.914Z,8.25
2022-11-04T06:57:43.241Z,6.57
2022-11-04T06:59:06.707Z,7.43
2022-11-04T07:00:30.067Z,8.18
2022-11-04T07:01:53.674Z,7.60
2022-11-04T07:03:17.147Z,8.27
2022-11-04T07:04:40.480Z,8.00
2022-11-04T07:06:07.220Z,8.63
2022-11-04T07:07:31.050Z,7.82
2022-11-04T07:08:57.757Z,8.63
2022-11-04T07:10:21.122Z,7.88
2022-11-04T07:11:45.295Z,7.70
2022-11-04T07:13:07.765Z,7.55
2022-11-04T07:14:31.297Z,7.80
2022-11-04T07:15:54.622Z,8.18
2022-11-04T07:17:17.963Z,8.20
2022-11-04T07:18:40.470Z,8.45
2022-11-04T07:20:05.496Z,7.63
2022-11-04T07:21:28.843Z,8.55
2022-11-04T07:22:52.265Z,8.13
2022-11-04T07:24:17.382Z,8.25
2022-11-04T07:25:40.749Z,8.15
2022-11-04T07:27:04.234Z,8.65
2022-11-04T07:28:27.580Z,8.27
2022-11-04T07:29:50.955Z,8.13
2022-11-04T07:31:15.054Z,8.25
2022-11-04T07:32:37.377Z,8.57
2022-11-04T07:34:00.713Z,9.45
2022-11-04T07:35:24.047Z,8.70
2022-11-04T07:36:47.586Z,8.25
2022-11-04T07:38:11.262Z,8.43
2022-11-04T07:39:36.245Z,8.05
2022-11-04T07:41:00.390Z,7.90
2022-11-04T07:42:23.760Z,8.70
2022-11-04T07:43:50.843Z,8.15
2022-11-04T07:45:14.193Z,6.82
2022-11-04T07:46:37.532Z,8.07
2022-11-04T07:48:00.897Z,7.55
2022-11-04T07:49:25.311Z,7.60
2022-11-04T07:50:48.662Z,8.10
2022-11-04T07:52:11.998Z,7.88
2022-11-04T07:53:35.765Z,7.40
2022-11-04T07:55:00.978Z,7.07
2022-11-04T07:56:24.893Z,7.07
2022-11-04T07:57:48.494Z,7.00
2022-11-04T07:59:12.152Z,7.00
2022-11-04T08:00:35.485Z,7.88
2022-11-04T08:01:59.030Z,7.30
2022-11-04T08:03:22.518Z,7.55
2022-11-04T08:04:44.957Z,7.35
2022-11-04T08:06:09.787Z,7.57
2022-11-04T08:07:33.166Z,6.72
2022-11-04T08:08:56.592Z,6.70
2022-11-04T08:10:21.485Z,6.63
2022-11-04T08:11:44.997Z,7.43
2022-11-04T08:13:08.550Z,8.57
2022-11-04T08:14:32.932Z,7.30
2022-11-04T08:15:56.431Z,7.35
2022-11-04T08:17:19.852Z,7.07
2022-11-04T08:18:43.960Z,7.25
2022-11-04T08:20:09.618Z,7.22
2022-11-04T08:21:33.947Z,7.35
2022-11-04T08:22:57.317Z,6.88
2022-11-04T08:24:20.919Z,7.13
2022-11-04T08:25:45.872Z,7.05
2022-11-04T08:27:10.631Z,6.68
2022-11-04T08:28:34.654Z,7.63
2022-11-04T08:29:58.186Z,7.07
2022-11-04T08:31:24.188Z,6.95
2022-11-04T08:32:47.562Z,6.90
2022-11-04T08:34:11.212Z,6.80
2022-11-04T08:35:40.906Z,7.70
2022-11-04T08:37:04.587Z,8.13
2022-11-04T08:38:28.687Z,6.68
2022-11-04T08:39:52.489Z,7.20
2022-11-04T08:41:19.664Z,6.65
2022-11-04T08:42:43.042Z,6.32
2022-11-04T08:44:07.507Z,6.28
2022-11-04T08:45:33.626Z,6.03
2022-11-04T08:46:57.307Z,6.40
2022-11-04T08:48:20.857Z,6.80
2022-11-04T08:49:44.348Z,6.10
2022-11-04T08:51:12.323Z,5.57
2022-11-04T08:52:35.672Z,5.90
2022-11-04T08:53:59.322Z,6.35
2022-11-04T08:55:22.708Z,5.85
2022-11-04T08:56:47.436Z,5.15
2022-11-04T08:58:11.109Z,4.68
2022-11-04T08:59:34.680Z,4.80
2022-11-04T09:00:58.149Z,4.88
2022-11-04T09:02:21.482Z,4.85
2022-11-04T09:03:44.989Z,4.63
2022-11-04T09:05:08.920Z,5.53
2022-11-04T09:06:36.696Z,5.35
2022-11-04T09:08:01.069Z,5.57
2022-11-04T09:09:24.399Z,10.20
2022-11-04T09:10:48.823Z,5.82
2022-11-04T09:12:13.591Z,5.70
2022-11-04T09:13:39.709Z,4.40
2022-11-04T09:15:03.525Z,5.05
2022-11-04T09:16:26.972Z,5.00
2022-11-04T09:17:50.315Z,4.88
2022-11-04T09:19:13.741Z,5.15
2022-11-04T09:20:38.620Z,4.90
2022-11-04T09:22:02.002Z,5.38
2022-11-04T09:23:25.414Z,4.70
2022-11-04T09:24:48.797Z,4.85
2022-11-04T09:26:13.921Z,5.70
2022-11-04T09:27:38.607Z,5.30
2022-11-04T09:29:02.507Z,4.70
2022-11-04T09:30:24.850Z,5.53
2022-11-04T09:31:50.060Z,4.95
2022-11-04T09:33:13.381Z,5.20
2022-11-04T09:34:37.394Z,5.40
2022-11-04T09:36:00.947Z,4.65
2022-11-04T09:37:24.296Z,5.28
2022-11-04T09:38:47.700Z,5.15
2022-11-04T09:40:15.839Z,4.88
2022-11-04T09:41:58.516Z,5.15
2022-11-04T09:43:33.280Z,5.13
2022-11-04T09:45:20.729Z,4.75
2022-11-04T09:46:44.766Z,5.40
2022-11-04T09:48:10.185Z,4.80
2022-11-04T09:49:36.336Z,5.53
2022-11-04T09:51:02.504Z,4.85
2022-11-04T09:52:27.879Z,5.20
2022-11-04T09:53:52.974Z,5.20
2022-11-04T09:55:21.714Z,4.75
2022-11-04T09:56:46.877Z,4.55
2022-11-04T09:58:12.957Z,5.03
2022-11-04T09:59:37.726Z,4.15
2022-11-04T10:01:05.795Z,5.25
2022-11-04T10:02:47.486Z,5.22
2022-11-04T10:04:22.143Z,5.30
2022-11-04T10:05:57.983Z,5.20
2022-11-04T10:07:36.242Z,5.50
2022-11-04T10:09:13.793Z,5.03
2022-11-04T10:10:41.256Z,4.88
2022-11-04T10:12:15.968Z,5.28
2022-11-04T10:13:50.488Z,4.90
2022-11-04T10:15:36.919Z,4.88
2022-11-04T10:17:07.453Z,5.00
2022-11-04T10:18:54.419Z,5.25
2022-11-04T10:20:34.097Z,4.38
2022-11-04T10:22:04.875Z,4.03
2022-11-04T10:23:33.207Z,4.18
2022-11-04T10:25:03.625Z,4.80
2022-11-04T10:26:31.261Z,5.22
2022-11-04T10:27:54.728Z,5.50
2022-11-04T10:29:29.028Z,5.20
2022-11-04T10:30:54.138Z,4.95
2022-11-04T10:32:22.553Z,5.00
2022-11-04T10:33:48.619Z,5.60
2022-11-04T10:35:19.863Z,5.07
2022-11-04T10:36:43.740Z,5.20
2022-11-04T10:38:19.933Z,4.57
2022-11-04T10:39:46.102Z,4.47
2022-11-04T10:41:23.940Z,5.28
2022-11-04T10:42:47.290Z,4.97
2022-11-04T10:44:17.835Z,4.88
2022-11-04T10:45:45.827Z,5.13
2022-11-04T10:47:19.865Z,4.80
2022-11-04T10:48:50.298Z,5.07
2022-11-04T10:50:31.414Z,4.57
2022-11-04T10:51:55.776Z,4.68
2022-11-04T10:53:21.271Z,5.00
2022-11-04T10:54:46.326Z,5.32
2022-11-04T10:56:18.192Z,4.68
2022-11-04T10:57:41.558Z,5.18
2022-11-04T10:59:20.279Z,4.78
2022-11-04T11:00:44.078Z,4.72
2022-11-04T11:02:07.886Z,4.32
2022-11-04T11:03:35.132Z,5.55
2022-11-04T11:05:15.000Z,5.15
2022-11-04T11:06:38.821Z,5.88
2022-11-04T11:08:02.190Z,5.00
2022-11-04T11:09:29.787Z,5.53
2022-11-04T11:10:53.833Z,4.13
2022-11-04T11:14:17.924Z,5.57
2022-11-04T11:15:42.445Z,4.68
2022-11-04T11:17:23.097Z,5.15
2022-11-04T11:19:14.594Z,5.32
2022-11-04T11:20:40.892Z,4.20
2022-11-04T11:22:04.415Z,6.07
2022-11-04T11:23:40.747Z,4.60
2022-11-04T11:25:23.171Z,4.10
2022-11-04T11:26:49.237Z,4.88
2022-11-04T11:28:13.940Z,5.03
2022-11-04T11:29:40.468Z,4.13
2022-11-04T11:31:07.854Z,4.60
2022-11-04T11:32:34.797Z,5.30
2022-11-04T11:34:01.810Z,4.45
2022-11-04T11:35:28.672Z,4.63
2022-11-04T11:36:52.403Z,5.68
2022-11-04T11:38:19.473Z,5.13
2022-11-04T11:39:45.255Z,7.03
2022-11-04T11:41:24.435Z,5.07
2022-11-04T11:42:48.500Z,5.88
2022-11-04T11:44:21.383Z,5.20
2022-11-04T11:45:49.241Z,5.07
2022-11-04T11:47:20.891Z,4.55
2022-11-04T11:48:46.885Z,4.38
2022-11-04T11:50:17.983Z,4.93
2022-11-04T11:51:42.739Z,5.00
2022-11-04T11:53:15.831Z,5.20
2022-11-04T11:54:39.591Z,4.47
2022-11-04T11:56:13.817Z,5.43
2022-11-04T12:01:25.964Z,4.85
2022-11-04T12:02:53.363Z,5.00
2022-11-04T12:09:38.519Z,4.45
2022-11-04T12:11:06.420Z,4.18
2022-11-04T12:12:56.802Z,4.70
2022-11-04T12:14:30.526Z,5.32
2022-11-04T12:16:10.481Z,5.40
2022-11-04T12:17:45.601Z,5.07
2022-11-04T12:19:22.508Z,4.60
2022-11-04T12:20:54.894Z,5.10
2022-11-04T12:22:26.854Z,5.18
2022-11-04T12:23:54.939Z,5.53
2022-11-04T12:25:24.076Z,5.15
2022-11-04T12:26:55.362Z,5.40
2022-11-04T12:28:26.904Z,4.80
2022-11-04T12:30:06.516Z,5.10
2022-11-04T12:31:39.507Z,4.65
2022-11-04T12:33:13.032Z,5.82
2022-11-04T12:34:47.186Z,5.18
2022-11-04T12:36:23.841Z,5.78
2022-11-04T12:37:56.399Z,5.55
2022-11-04T12:39:31.556Z,5.65
2022-11-04T12:41:32.139Z,5.20
2022-11-04T12:43:03.611Z,5.68
2022-11-04T12:44:32.531Z,4.82
2022-11-04T12:46:05.756Z,4.80
2022-11-04T12:47:36.664Z,4.78
2022-11-04T12:49:21.062Z,5.85
2022-11-04T12:51:01.377Z,5.72
2022-11-04T12:52:48.643Z,5.28
2022-11-04T12:54:39.827Z,5.00
2022-11-04T12:56:09.210Z,4.82
2022-11-04T12:57:36.621Z,6.38
2022-11-04T12:59:22.152Z,5.80
2022-11-04T13:00:46.799Z,4.90
2022-11-04T13:02:16.871Z,5.32
2022-11-04T13:03:45.989Z,6.15
2022-11-04T13:05:24.938Z,5.28
2022-11-04T13:06:52.147Z,5.97
2022-11-04T13:08:23.098Z,6.10
2022-11-04T13:09:50.412Z,5.78
2022-11-04T13:11:25.883Z,5.57
2022-11-04T13:12:51.575Z,5.78
2022-11-04T13:14:19.133Z,5.78
2022-11-04T13:15:48.022Z,6.05
2022-11-04T13:17:15.461Z,6.28
2022-11-04T13:18:41.884Z,4.90
2022-11-04T13:20:08.475Z,8.93
2022-11-04T13:21:35.572Z,5.88
2022-11-04T13:23:03.334Z,5.80
2022-11-04T13:24:30.541Z,4.82
2022-11-04T13:25:55.703Z,5.00
2022-11-04T13:27:22.590Z,5.40
2022-11-04T13:28:48.650Z,6.85
2022-11-04T13:30:24.042Z,5.68
2022-11-04T13:31:51.468Z,5.18
2022-11-04T13:33:22.727Z,4.97
2022-11-04T13:34:49.686Z,5.80
2022-11-04T13:36:22.310Z,5.22
2022-11-04T13:37:50.403Z,5.85
2022-11-04T13:39:19.697Z,5.38
2022-11-04T13:40:49.450Z,4.90
2022-11-04T13:42:35.126Z,5.68
2022-11-04T13:43:59.228Z,5.55
2022-11-04T13:45:22.984Z,5.32
2022-11-04T13:46:50.525Z,5.82
2022-11-04T13:48:13.903Z,5.22
2022-11-04T13:49:38.271Z,4.72
2022-11-04T13:51:03.268Z,5.90
2022-11-04T13:52:31.065Z,5.75
2022-11-04T13:53:56.632Z,5.28
2022-11-04T13:55:21.574Z,5.55
2022-11-04T13:56:44.942Z,5.50
2022-11-04T13:58:16.507Z,4.82
2022-11-04T13:59:40.824Z,4.50
2022-11-04T14:01:18.719Z,5.25
2022-11-04T14:02:44.605Z,5.28
2022-11-04T14:04:25.804Z,4.97
2022-11-04T14:06:04.283Z,4.90
2022-11-04T14:08:12.591Z,4.63
2022-11-04T14:09:54.840Z,4.97
2022-11-04T14:11:18.202Z,4.95
2022-11-04T14:12:41.972Z,5.22
2022-11-04T14:14:19.813Z,4.65
2022-11-04T14:16:02.544Z,4.50
2022-11-04T14:18:03.308Z,4.18
2022-11-04T14:19:59.601Z,4.88
2022-11-04T14:21:24.012Z,4.40
2022-11-04T14:22:51.726Z,4.47
2022-11-04T14:24:16.644Z,4.40
2022-11-04T14:25:41.583Z,4.20
2022-11-04T14:27:04.162Z,4.30
2022-11-04T14:28:29.540Z,4.45
2022-11-04T14:29:53.926Z,5.45
2022-11-04T14:31:36.244Z,4.80
2022-11-04T14:33:02.447Z,4.72
2022-11-04T14:34:27.429Z,5.20
2022-11-04T14:35:51.021Z,4.38
2022-11-04T14:37:22.354Z,4.30
2022-11-04T14:38:48.418Z,4.07
2022-11-04T14:40:26.641Z,5.32
2022-11-04T14:41:55.761Z,4.25
2022-11-04T14:43:29.084Z,4.47
2022-11-04T14:44:53.824Z,4.80
2022-11-04T14:46:21.233Z,4.60
2022-11-04T14:47:45.125Z,4.45
2022-11-04T14:49:08.672Z,4.55
2022-11-04T14:50:32.184Z,5.18
2022-11-04T14:51:56.184Z,4.55
2022-11-04T14:53:24.942Z,4.55
2022-11-04T14:54:48.476Z,4.45
2022-11-04T14:56:23.522Z,4.60
2022-11-04T14:57:48.602Z,4.90
2022-11-04T14:59:22.859Z,5.70
2022-11-04T15:00:55.874Z,4.78
2022-11-04T15:02:22.014Z,4.32
2022-11-04T15:04:10.911Z,5.20
2022-11-04T15:05:33.288Z,4.60
2022-11-04T15:06:57.299Z,4.97
2022-11-04T15:08:32.282Z,4.45
2022-11-04T15:09:55.714Z,4.82
2022-11-04T15:11:41.745Z,4.93
2022-11-04T15:13:04.126Z,5.45
2022-11-04T15:14:27.904Z,4.32
2022-11-04T15:15:53.300Z,5.28
2022-11-04T15:17:20.157Z,5.25
2022-11-04T15:18:44.134Z,4.40
2022-11-04T15:20:08.790Z,4.80
2022-11-04T15:21:32.168Z,4.72
2022-11-04T15:22:55.682Z,4.72
2022-11-04T15:24:19.225Z,5.38
2022-11-04T15:25:47.252Z,5.50
2022-11-04T15:27:14.836Z,5.10
2022-11-04T15:28:46.715Z,5.68
2022-11-04T15:30:21.670Z,5.85
2022-11-04T15:31:55.807Z,5.55
2022-11-04T15:33:19.427Z,5.40
2022-11-04T15:34:42.911Z,5.75
2022-11-04T15:36:07.170Z,5.80
2022-11-04T15:37:31.805Z,5.13
2022-11-04T15:38:57.804Z,5.97
2022-11-04T15:40:21.441Z,6.10
2022-11-04T15:42:03.250Z,5.63
2022-11-04T15:43:26.607Z,5.30
2022-11-04T15:44:51.543Z,5.10
2022-11-04T15:46:19.458Z,5.85
2022-11-04T15:47:44.145Z,4.97
2022-11-04T15:49:08.444Z,5.72
2022-11-04T15:50:32.389Z,5.10
2022-11-04T15:51:58.558Z,5.65
2022-11-04T15:53:21.953Z,5.15
2022-11-04T15:54:46.792Z,5.25
2022-11-04T15:56:10.266Z,5.45
2022-11-04T15:57:35.218Z,5.45
2022-11-04T15:58:59.113Z,5.82
2022-11-04T16:00:25.766Z,5.22
2022-11-04T16:01:50.855Z,7.43
2022-11-04T16:03:20.531Z,6.65
2022-11-04T16:04:49.009Z,5.70
2022-11-04T16:06:13.576Z,6.65
2022-11-04T16:07:39.255Z,7.43
2022-11-04T16:09:05.743Z,7.45
2022-11-04T16:10:31.208Z,6.55
2022-11-04T16:12:13.469Z,7.03
2022-11-04T16:13:36.881Z,6.00
2022-11-04T16:15:00.818Z,6.55
2022-11-04T16:16:25.460Z,5.80
2022-11-04T16:17:48.858Z,6.15
2022-11-04T16:19:22.917Z,5.97
2022-11-04T16:20:47.510Z,6.00
2022-11-04T16:22:11.415Z,5.25
2022-11-04T16:23:40.939Z,6.00
2022-11-04T16:25:06.959Z,5.60
2022-11-04T16:26:33.214Z,5.30
2022-11-04T16:27:56.590Z,5.07
2022-11-04T16:29:23.171Z,6.30
2022-11-04T16:30:57.861Z,5.50
2022-11-04T16:32:27.107Z,5.55
2022-11-04T16:33:50.627Z,5.13
2022-11-04T16:35:18.672Z,5.47
2022-11-04T16:36:42.037Z,5.95
2022-11-04T16:38:05.503Z,5.40
2022-11-04T16:39:28.887Z,5.55
2022-11-04T16:40:52.265Z,6.75
2022-11-04T16:42:16.305Z,6.40
2022-11-04T16:43:43.626Z,5.65
2022-11-04T16:45:10.386Z,6.18
2022-11-04T16:46:34.470Z,5.75
2022-11-04T16:47:58.798Z,6.47
2022-11-04T16:49:22.915Z,6.18
2022-11-04T16:50:48.916Z,5.75
2022-11-04T16:52:15.897Z,5.85
2022-11-04T16:53:39.233Z,6.47
2022-11-04T16:55:02.597Z,5.93
2022-11-04T16:56:27.138Z,6.03
2022-11-04T16:57:52.411Z,6.97
2022-11-04T16:59:15.861Z,6.28
2022-11-04T17:00:39.320Z,5.57
2022-11-04T17:02:02.952Z,4.68
2022-11-04T17:03:26.610Z,5.95
2022-11-04T17:04:49.974Z,5.63
2022-11-04T17:06:16.101Z,6.47
2022-11-04T17:07:52.110Z,6.50
2022-11-04T17:09:21.822Z,5.18
2022-11-04T17:10:45.341Z,5.93
2022-11-04T17:12:09.734Z,5.68
2022-11-04T17:13:36.298Z,5.72
2022-11-04T17:15:00.029Z,5.72
2022-11-04T17:16:23.527Z,5.93
2022-11-04T17:17:47.399Z,5.90
2022-11-04T17:19:15.358Z,7.43
2022-11-04T17:20:40.282Z,6.13
2022-11-04T17:22:06.823Z,5.78
2022-11-04T17:23:30.218Z,5.53
2022-11-04T17:24:53.618Z,5.97
2022-11-04T17:26:16.970Z,5.70
2022-11-04T17:27:41.134Z,6.93
2022-11-04T17:29:04.618Z,10.60
2022-11-04T17:30:28.073Z,7.50
2022-11-04T17:31:52.867Z,6.82
2022-11-04T17:33:17.359Z,6.25
2022-11-04T17:34:41.124Z,6.20
2022-11-04T17:36:07.719Z,5.93
2022-11-04T17:37:32.714Z,5.95
2022-11-04T17:38:56.088Z,5.70
2022-11-04T17:40:20.476Z,14.70
2022-11-04T17:42:01.247Z,6.75
2022-11-04T17:43:42.147Z,5.97
2022-11-04T17:45:06.169Z,6.40
2022-11-04T17:46:35.159Z,6.82
2022-11-04T17:47:58.781Z,6.15
2022-11-04T17:49:24.069Z,6.05
2022-11-04T17:50:47.417Z,6.75
2022-11-04T17:52:10.799Z,7.00
2022-11-04T17:53:35.529Z,7.22
2022-11-04T17:54:58.986Z,6.97
2022-11-04T17:56:23.745Z,6.80
2022-11-04T17:57:47.349Z,7.53
2022-11-04T17:59:12.279Z,7.72
2022-11-04T18:00:35.750Z,7.80
2022-11-04T18:01:59.259Z,6.93
2022-11-04T18:03:22.764Z,6.13
2022-11-04T18:04:47.082Z,6.47
2022-11-04T18:06:09.722Z,6.43
2022-11-04T18:07:33.089Z,6.38
2022-11-04T18:08:59.049Z,6.43
2022-11-04T18:10:22.396Z,6.05
2022-11-04T18:12:18.940Z,6.22
2022-11-04T18:13:42.289Z,5.63
2022-11-04T18:15:06.676Z,5.93
2022-11-04T18:16:30.305Z,6.45
2022-11-04T18:17:53.650Z,5.85
2022-11-04T18:19:18.612Z,5.97
2022-11-04T18:20:41.962Z,6.22
2022-11-04T18:22:05.566Z,6.90
2022-11-04T18:23:30.101Z,6.22
2022-11-04T18:24:55.230Z,6.25
2022-11-04T18:26:19.175Z,6.68
2022-11-04T18:27:42.737Z,7.32
2022-11-04T18:29:05.483Z,7.03
2022-11-04T18:30:28.826Z,7.45
2022-11-04T18:31:52.198Z,6.75
2022-11-04T18:33:15.591Z,6.57
2022-11-04T18:34:39.518Z,7.35
2022-11-04T18:36:04.858Z,7.28
2022-11-04T18:37:29.693Z,6.13
2022-11-04T18:38:52.065Z,9.40
2022-11-04T18:40:16.943Z,6.55
2022-11-04T18:41:40.942Z,7.30
2022-11-04T18:43:08.844Z,6.32
2022-11-04T18:44:32.815Z,5.82
2022-11-04T18:45:56.181Z,6.78
2022-11-04T18:47:20.262Z,6.10
2022-11-04T18:48:45.138Z,6.03
2022-11-04T18:50:09.289Z,6.07
2022-11-04T18:51:32.880Z,7.30
2022-11-04T18:52:56.642Z,6.93
2022-11-04T18:54:20.092Z,7.35
2022-11-04T18:55:44.862Z,6.45
2022-11-04T18:57:10.145Z,5.82
2022-11-04T18:58:34.554Z,6.63
2022-11-04T18:59:57.937Z,6.55
2022-11-04T19:01:23.964Z,6.80
2022-11-04T19:02:47.524Z,6.82
2022-11-04T19:04:11.404Z,6.22
2022-11-04T19:05:34.806Z,6.85
2022-11-04T19:06:58.290Z,6.57
2022-11-04T19:08:21.643Z,6.40
2022-11-04T19:09:47.055Z,6.40
2022-11-04T19:11:14.261Z,6.72
2022-11-04T19:12:55.106Z,6.20
2022-11-04T19:14:20.735Z,6.40
2022-11-04T19:15:44.134Z,7.03
2022-11-04T19:17:07.484Z,7.15
2022-11-04T19:18:30.874Z,7.72
2022-11-04T19:19:54.220Z,6.43
2022-11-04T19:21:19.616Z,6.75
2022-11-04T19:22:43.079Z,7.63
2022-11-04T19:24:08.309Z,6.63
2022-11-04T19:25:32.045Z,7.35
2022-11-04T19:26:56.788Z,6.70
2022-11-04T19:28:37.235Z,7.90
2022-11-04T19:30:03.821Z,7.57
2022-11-04T19:31:29.331Z,7.47
2022-11-04T19:32:51.749Z,6.85
2022-11-04T19:34:15.181Z,7.35